sensor_id;sensor_type;location;lat;lon;timestamp;temperature;humidity
758;DHT22;363;48.764;9.172;2024-02-28T00:01:15;9.90;99.90
758;DHT22;363;48.764;9.172;2024-02-28T00:03:41;10.10;99.90
758;DHT22;363;48.764;9.172;2024-02-28T00:06:06;9.80;99.90
758;DHT22;363;48.764;9.172;2024-02-28T00:08:32;9.80;99.90
758;DHT22;363;48.764;9.172;2024-02-28T00:10:57;9.80;99.90
758;DHT22;363;48.764;9.172;2024-02-28T00:13:23;10.20;99.90
758;DHT22;363;48.764;9.172;2024-02-28T00:15:50;10.00;99.90
758;DHT22;363;48.764;9.172;2024-02-28T00:18:16;9.90;99.90
758;DHT22;363;48.764;9.172;2024-02-28T00:20:44;9.90;99.90
758;DHT22;363;48.764;9.172;2024-02-28T00:23:09;10.40;99.90
758;DHT22;363;48.764;9.172;2024-02-28T00:25:35;10.10;99.90
758;DHT22;363;48.764;9.172;2024-02-28T00:28:00;10.20;99.90
758;DHT22;363;48.764;9.172;2024-02-28T00:30:26;9.90;99.90
758;DHT22;363;48.764;9.172;2024-02-28T00:32:54;9.70;99.90
758;DHT22;363;48.764;9.172;2024-02-28T00:35:19;9.50;99.90
758;DHT22;363;48.764;9.172;2024-02-28T00:37:45;9.70;99.90
758;DHT22;363;48.764;9.172;2024-02-28T00:40:11;10.10;99.90
758;DHT22;363;48.764;9.172;2024-02-28T00:42:36;9.80;99.90
758;DHT22;363;48.764;9.172;2024-02-28T00:45:02;10.10;99.90
758;DHT22;363;48.764;9.172;2024-02-28T00:47:28;9.80;99.90
758;DHT22;363;48.764;9.172;2024-02-28T00:49:53;9.80;99.90
758;DHT22;363;48.764;9.172;2024-02-28T00:52:19;10.00;99.90
758;DHT22;363;48.764;9.172;2024-02-28T00:54:44;9.90;99.90
758;DHT22;363;48.764;9.172;2024-02-28T00:57:10;10.10;99.90
758;DHT22;363;48.764;9.172;2024-02-28T00:59:35;10.10;99.90
758;DHT22;363;48.764;9.172;2024-02-28T01:02:01;9.70;99.90
758;DHT22;363;48.764;9.172;2024-02-28T01:04:28;9.50;99.90
758;DHT22;363;48.764;9.172;2024-02-28T01:06:54;9.90;99.90
758;DHT22;363;48.764;9.172;2024-02-28T01:09:21;9.20;99.90
758;DHT22;363;48.764;9.172;2024-02-28T01:11:46;9.40;99.90
758;DHT22;363;48.764;9.172;2024-02-28T01:14:12;9.40;99.90
758;DHT22;363;48.764;9.172;2024-02-28T01:16:37;9.20;99.90
758;DHT22;363;48.764;9.172;2024-02-28T01:19:03;9.60;99.90
758;DHT22;363;48.764;9.172;2024-02-28T01:21:28;9.60;99.90
758;DHT22;363;48.764;9.172;2024-02-28T01:23:54;9.50;99.90
758;DHT22;363;48.764;9.172;2024-02-28T01:26:19;9.50;99.90
758;DHT22;363;48.764;9.172;2024-02-28T01:28:47;10.00;99.90
758;DHT22;363;48.764;9.172;2024-02-28T01:31:13;9.50;99.90
758;DHT22;363;48.764;9.172;2024-02-28T01:33:38;9.30;99.90
758;DHT22;363;48.764;9.172;2024-02-28T01:36:06;9.80;99.90
758;DHT22;363;48.764;9.172;2024-02-28T01:38:32;9.60;99.90
758;DHT22;363;48.764;9.172;2024-02-28T01:40:57;9.20;99.90
758;DHT22;363;48.764;9.172;2024-02-28T01:43:23;9.40;99.90
758;DHT22;363;48.764;9.172;2024-02-28T01:45:49;9.70;99.90
758;DHT22;363;48.764;9.172;2024-02-28T01:48:16;9.60;99.90
758;DHT22;363;48.764;9.172;2024-02-28T01:50:41;9.10;99.90
758;DHT22;363;48.764;9.172;2024-02-28T01:53:08;9.20;99.90
758;DHT22;363;48.764;9.172;2024-02-28T01:55:35;9.20;99.90
758;DHT22;363;48.764;9.172;2024-02-28T01:58:02;9.40;99.90
758;DHT22;363;48.764;9.172;2024-02-28T02:00:32;9.30;99.90
758;DHT22;363;48.764;9.172;2024-02-28T02:02:58;9.60;99.90
758;DHT22;363;48.764;9.172;2024-02-28T02:05:23;10.00;99.90
758;DHT22;363;48.764;9.172;2024-02-28T02:07:49;9.50;99.90
758;DHT22;363;48.764;9.172;2024-02-28T02:10:16;9.20;99.90
758;DHT22;363;48.764;9.172;2024-02-28T02:12:41;9.30;99.90
758;DHT22;363;48.764;9.172;2024-02-28T02:15:07;9.40;99.90
758;DHT22;363;48.764;9.172;2024-02-28T02:17:32;9.40;99.90
758;DHT22;363;48.764;9.172;2024-02-28T02:19:58;9.00;99.90
758;DHT22;363;48.764;9.172;2024-02-28T02:22:27;9.80;99.90
758;DHT22;363;48.764;9.172;2024-02-28T02:24:53;9.40;99.90
758;DHT22;363;48.764;9.172;2024-02-28T02:27:18;9.40;99.90
758;DHT22;363;48.764;9.172;2024-02-28T02:29:44;9.40;99.90
758;DHT22;363;48.764;9.172;2024-02-28T02:32:09;9.70;99.90
758;DHT22;363;48.764;9.172;2024-02-28T02:34:35;9.60;99.90
758;DHT22;363;48.764;9.172;2024-02-28T02:37:00;9.50;99.90
758;DHT22;363;48.764;9.172;2024-02-28T02:39:26;9.40;99.90
758;DHT22;363;48.764;9.172;2024-02-28T02:41:51;9.40;99.90
758;DHT22;363;48.764;9.172;2024-02-28T02:44:17;9.30;99.90
758;DHT22;363;48.764;9.172;2024-02-28T02:46:42;9.40;99.90
758;DHT22;363;48.764;9.172;2024-02-28T02:49:08;9.50;99.90
758;DHT22;363;48.764;9.172;2024-02-28T02:51:34;9.70;99.90
758;DHT22;363;48.764;9.172;2024-02-28T02:54:00;9.60;99.90
758;DHT22;363;48.764;9.172;2024-02-28T02:56:26;8.90;99.90
758;DHT22;363;48.764;9.172;2024-02-28T02:58:51;8.90;99.90
758;DHT22;363;48.764;9.172;2024-02-28T03:01:17;10.20;99.90
758;DHT22;363;48.764;9.172;2024-02-28T03:03:42;9.40;99.90
758;DHT22;363;48.764;9.172;2024-02-28T03:06:08;9.60;99.90
758;DHT22;363;48.764;9.172;2024-02-28T03:08:36;9.30;99.90
758;DHT22;363;48.764;9.172;2024-02-28T03:11:02;9.10;99.90
758;DHT22;363;48.764;9.172;2024-02-28T03:13:29;9.20;99.90
758;DHT22;363;48.764;9.172;2024-02-28T03:15:55;9.60;99.90
758;DHT22;363;48.764;9.172;2024-02-28T03:18:20;9.60;99.90
758;DHT22;363;48.764;9.172;2024-02-28T03:20:46;9.30;99.90
758;DHT22;363;48.764;9.172;2024-02-28T03:23:11;9.60;99.90
758;DHT22;363;48.764;9.172;2024-02-28T03:25:37;9.30;99.90
758;DHT22;363;48.764;9.172;2024-02-28T03:28:03;9.60;99.90
758;DHT22;363;48.764;9.172;2024-02-28T03:30:28;9.20;99.90
758;DHT22;363;48.764;9.172;2024-02-28T03:32:54;9.50;99.90
758;DHT22;363;48.764;9.172;2024-02-28T03:35:19;9.60;99.90
758;DHT22;363;48.764;9.172;2024-02-28T03:37:45;8.90;99.90
758;DHT22;363;48.764;9.172;2024-02-28T03:40:11;8.90;99.90
758;DHT22;363;48.764;9.172;2024-02-28T03:42:36;9.00;99.90
758;DHT22;363;48.764;9.172;2024-02-28T03:45:02;9.00;99.90
758;DHT22;363;48.764;9.172;2024-02-28T03:47:28;8.90;99.90
758;DHT22;363;48.764;9.172;2024-02-28T03:49:54;8.80;99.90
758;DHT22;363;48.764;9.172;2024-02-28T03:52:23;9.50;99.90
758;DHT22;363;48.764;9.172;2024-02-28T03:57:14;9.00;99.90
758;DHT22;363;48.764;9.172;2024-02-28T03:59:41;9.00;99.90
758;DHT22;363;48.764;9.172;2024-02-28T04:02:06;9.10;99.90
758;DHT22;363;48.764;9.172;2024-02-28T04:04:32;9.40;99.90
758;DHT22;363;48.764;9.172;2024-02-28T04:06:57;9.40;99.90
758;DHT22;363;48.764;9.172;2024-02-28T04:09:23;9.10;99.90
758;DHT22;363;48.764;9.172;2024-02-28T04:11:48;9.00;99.90
758;DHT22;363;48.764;9.172;2024-02-28T04:14:14;9.00;99.90
758;DHT22;363;48.764;9.172;2024-02-28T04:16:43;9.20;99.90
758;DHT22;363;48.764;9.172;2024-02-28T04:19:09;8.80;99.90
758;DHT22;363;48.764;9.172;2024-02-28T04:21:35;9.20;99.90
758;DHT22;363;48.764;9.172;2024-02-28T04:24:01;9.00;99.90
758;DHT22;363;48.764;9.172;2024-02-28T04:26:26;9.00;99.90
758;DHT22;363;48.764;9.172;2024-02-28T04:28:52;9.00;99.90
758;DHT22;363;48.764;9.172;2024-02-28T04:31:17;9.20;99.90
758;DHT22;363;48.764;9.172;2024-02-28T04:33:43;9.00;99.90
758;DHT22;363;48.764;9.172;2024-02-28T04:36:08;8.90;99.90
758;DHT22;363;48.764;9.172;2024-02-28T04:38:34;9.20;99.90
758;DHT22;363;48.764;9.172;2024-02-28T04:40:59;8.90;99.90
758;DHT22;363;48.764;9.172;2024-02-28T04:43:25;9.00;99.90
758;DHT22;363;48.764;9.172;2024-02-28T04:45:50;8.90;99.90
758;DHT22;363;48.764;9.172;2024-02-28T04:48:16;8.60;99.90
758;DHT22;363;48.764;9.172;2024-02-28T04:50:41;8.80;99.90
758;DHT22;363;48.764;9.172;2024-02-28T04:53:07;8.60;99.90
758;DHT22;363;48.764;9.172;2024-02-28T04:55:32;8.50;99.90
758;DHT22;363;48.764;9.172;2024-02-28T04:57:58;8.50;99.90
758;DHT22;363;48.764;9.172;2024-02-28T05:00:23;8.00;99.90
758;DHT22;363;48.764;9.172;2024-02-28T05:02:49;8.60;99.90
758;DHT22;363;48.764;9.172;2024-02-28T05:07:40;8.30;99.90
758;DHT22;363;48.764;9.172;2024-02-28T05:10:06;8.80;99.90
758;DHT22;363;48.764;9.172;2024-02-28T05:12:32;8.30;99.90
758;DHT22;363;48.764;9.172;2024-02-28T05:14:57;8.60;99.90
758;DHT22;363;48.764;9.172;2024-02-28T05:17:23;8.60;99.90
758;DHT22;363;48.764;9.172;2024-02-28T05:19:48;8.40;99.90
758;DHT22;363;48.764;9.172;2024-02-28T05:22:14;8.20;99.90
758;DHT22;363;48.764;9.172;2024-02-28T05:24:40;8.30;99.90
758;DHT22;363;48.764;9.172;2024-02-28T05:27:05;8.70;99.90
758;DHT22;363;48.764;9.172;2024-02-28T05:29:31;8.40;99.90
758;DHT22;363;48.764;9.172;2024-02-28T05:31:56;8.30;99.90
758;DHT22;363;48.764;9.172;2024-02-28T05:34:22;8.50;99.90
758;DHT22;363;48.764;9.172;2024-02-28T05:36:47;8.30;99.90
758;DHT22;363;48.764;9.172;2024-02-28T05:39:14;8.30;99.90
758;DHT22;363;48.764;9.172;2024-02-28T05:41:39;8.40;99.90
758;DHT22;363;48.764;9.172;2024-02-28T05:44:05;8.30;99.90
758;DHT22;363;48.764;9.172;2024-02-28T05:46:30;8.30;99.90
758;DHT22;363;48.764;9.172;2024-02-28T05:48:56;8.10;99.90
758;DHT22;363;48.764;9.172;2024-02-28T05:51:21;8.20;99.90
758;DHT22;363;48.764;9.172;2024-02-28T05:53:47;8.40;99.90
758;DHT22;363;48.764;9.172;2024-02-28T05:56:13;8.40;99.90
758;DHT22;363;48.764;9.172;2024-02-28T05:58:43;8.30;99.90
758;DHT22;363;48.764;9.172;2024-02-28T06:01:14;8.30;99.90
758;DHT22;363;48.764;9.172;2024-02-28T06:03:40;8.50;99.90
758;DHT22;363;48.764;9.172;2024-02-28T06:06:07;8.10;99.90
758;DHT22;363;48.764;9.172;2024-02-28T06:08:34;8.30;99.90
758;DHT22;363;48.764;9.172;2024-02-28T06:11:00;8.10;99.90
758;DHT22;363;48.764;9.172;2024-02-28T06:13:26;8.10;99.90
758;DHT22;363;48.764;9.172;2024-02-28T06:15:52;8.40;99.90
758;DHT22;363;48.764;9.172;2024-02-28T06:18:17;8.00;99.90
758;DHT22;363;48.764;9.172;2024-02-28T06:20:43;7.90;99.90
758;DHT22;363;48.764;9.172;2024-02-28T06:23:08;8.10;99.90
758;DHT22;363;48.764;9.172;2024-02-28T06:25:34;8.10;99.90
758;DHT22;363;48.764;9.172;2024-02-28T06:27:59;8.00;99.90
758;DHT22;363;48.764;9.172;2024-02-28T06:30:27;7.80;99.90
758;DHT22;363;48.764;9.172;2024-02-28T06:32:52;8.30;99.90
758;DHT22;363;48.764;9.172;2024-02-28T06:35:18;8.40;99.90
758;DHT22;363;48.764;9.172;2024-02-28T06:37:43;8.00;99.90
758;DHT22;363;48.764;9.172;2024-02-28T06:40:15;8.40;99.90
758;DHT22;363;48.764;9.172;2024-02-28T06:42:40;8.20;99.90
758;DHT22;363;48.764;9.172;2024-02-28T06:45:06;8.00;99.90
758;DHT22;363;48.764;9.172;2024-02-28T06:47:32;8.20;99.90
758;DHT22;363;48.764;9.172;2024-02-28T06:49:58;7.90;99.90
758;DHT22;363;48.764;9.172;2024-02-28T06:52:23;8.10;99.90
758;DHT22;363;48.764;9.172;2024-02-28T06:54:49;8.00;99.90
758;DHT22;363;48.764;9.172;2024-02-28T06:57:14;7.90;99.90
758;DHT22;363;48.764;9.172;2024-02-28T06:59:40;8.20;99.90
758;DHT22;363;48.764;9.172;2024-02-28T07:02:05;8.20;99.90
758;DHT22;363;48.764;9.172;2024-02-28T07:04:31;8.40;99.90
758;DHT22;363;48.764;9.172;2024-02-28T07:06:57;8.30;99.90
758;DHT22;363;48.764;9.172;2024-02-28T07:09:23;8.40;99.90
758;DHT22;363;48.764;9.172;2024-02-28T07:11:52;8.50;99.90
758;DHT22;363;48.764;9.172;2024-02-28T07:14:17;8.30;99.90
758;DHT22;363;48.764;9.172;2024-02-28T07:16:43;8.30;99.90
758;DHT22;363;48.764;9.172;2024-02-28T07:19:09;8.40;99.90
758;DHT22;363;48.764;9.172;2024-02-28T07:21:35;8.70;99.90
758;DHT22;363;48.764;9.172;2024-02-28T07:24:02;8.70;99.90
758;DHT22;363;48.764;9.172;2024-02-28T07:26:30;8.50;99.90
758;DHT22;363;48.764;9.172;2024-02-28T07:28:55;8.70;99.90
758;DHT22;363;48.764;9.172;2024-02-28T07:31:21;8.70;99.90
758;DHT22;363;48.764;9.172;2024-02-28T07:33:47;9.00;99.90
758;DHT22;363;48.764;9.172;2024-02-28T07:36:13;8.90;99.90
758;DHT22;363;48.764;9.172;2024-02-28T07:38:38;8.80;99.90
758;DHT22;363;48.764;9.172;2024-02-28T07:41:06;8.50;99.90
758;DHT22;363;48.764;9.172;2024-02-28T07:43:32;8.70;99.90
758;DHT22;363;48.764;9.172;2024-02-28T07:46:12;8.80;99.90
758;DHT22;363;48.764;9.172;2024-02-28T07:48:39;8.60;99.90
758;DHT22;363;48.764;9.172;2024-02-28T07:51:05;9.20;99.90
758;DHT22;363;48.764;9.172;2024-02-28T07:53:31;9.00;99.90
758;DHT22;363;48.764;9.172;2024-02-28T07:55:57;8.50;99.90
758;DHT22;363;48.764;9.172;2024-02-28T07:58:23;9.00;99.90
758;DHT22;363;48.764;9.172;2024-02-28T08:00:50;8.70;99.90
758;DHT22;363;48.764;9.172;2024-02-28T08:03:18;8.70;99.90
758;DHT22;363;48.764;9.172;2024-02-28T08:05:43;8.90;99.90
758;DHT22;363;48.764;9.172;2024-02-28T08:08:10;9.50;99.90
758;DHT22;363;48.764;9.172;2024-02-28T08:10:37;9.10;99.90
758;DHT22;363;48.764;9.172;2024-02-28T08:13:03;8.90;99.90
758;DHT22;363;48.764;9.172;2024-02-28T08:15:29;9.20;99.90
758;DHT22;363;48.764;9.172;2024-02-28T08:17:54;8.90;99.90
758;DHT22;363;48.764;9.172;2024-02-28T08:20:20;9.20;99.90
758;DHT22;363;48.764;9.172;2024-02-28T08:22:46;9.20;99.90
758;DHT22;363;48.764;9.172;2024-02-28T08:25:11;9.10;99.90
758;DHT22;363;48.764;9.172;2024-02-28T08:27:38;9.10;99.90
758;DHT22;363;48.764;9.172;2024-02-28T08:30:04;9.00;99.90
758;DHT22;363;48.764;9.172;2024-02-28T08:32:31;9.00;99.90
758;DHT22;363;48.764;9.172;2024-02-28T08:34:57;9.30;99.90
758;DHT22;363;48.764;9.172;2024-02-28T08:37:23;9.00;99.90
758;DHT22;363;48.764;9.172;2024-02-28T08:39:49;9.20;99.90
758;DHT22;363;48.764;9.172;2024-02-28T08:42:15;9.30;99.90
758;DHT22;363;48.764;9.172;2024-02-28T08:44:40;9.60;99.90
758;DHT22;363;48.764;9.172;2024-02-28T08:47:06;9.60;99.90
758;DHT22;363;48.764;9.172;2024-02-28T08:49:35;9.00;99.90
758;DHT22;363;48.764;9.172;2024-02-28T08:52:01;9.60;99.90
758;DHT22;363;48.764;9.172;2024-02-28T08:54:26;9.30;99.90
758;DHT22;363;48.764;9.172;2024-02-28T08:56:52;9.10;99.90
758;DHT22;363;48.764;9.172;2024-02-28T08:59:17;9.40;99.90
758;DHT22;363;48.764;9.172;2024-02-28T09:01:43;9.00;99.90
758;DHT22;363;48.764;9.172;2024-02-28T09:04:09;9.00;99.90
758;DHT22;363;48.764;9.172;2024-02-28T09:06:34;9.30;99.90
758;DHT22;363;48.764;9.172;2024-02-28T09:09:00;9.50;99.90
758;DHT22;363;48.764;9.172;2024-02-28T09:11:25;8.50;99.90
758;DHT22;363;48.764;9.172;2024-02-28T09:13:51;8.80;99.90
758;DHT22;363;48.764;9.172;2024-02-28T09:16:18;9.10;99.90
758;DHT22;363;48.764;9.172;2024-02-28T09:18:44;9.20;99.90
758;DHT22;363;48.764;9.172;2024-02-28T09:21:09;9.20;99.90
758;DHT22;363;48.764;9.172;2024-02-28T09:23:35;9.20;99.90
758;DHT22;363;48.764;9.172;2024-02-28T09:26:03;9.10;99.90
758;DHT22;363;48.764;9.172;2024-02-28T09:28:29;9.30;99.90
758;DHT22;363;48.764;9.172;2024-02-28T09:30:55;8.90;99.90
758;DHT22;363;48.764;9.172;2024-02-28T09:33:20;9.30;99.90
758;DHT22;363;48.764;9.172;2024-02-28T09:35:46;9.80;99.90
758;DHT22;363;48.764;9.172;2024-02-28T09:38:11;9.10;99.90
758;DHT22;363;48.764;9.172;2024-02-28T09:40:37;9.10;99.90
758;DHT22;363;48.764;9.172;2024-02-28T09:43:04;9.20;99.90
758;DHT22;363;48.764;9.172;2024-02-28T09:45:30;9.00;99.90
758;DHT22;363;48.764;9.172;2024-02-28T09:48:00;9.20;99.90
758;DHT22;363;48.764;9.172;2024-02-28T09:50:26;9.70;99.90
758;DHT22;363;48.764;9.172;2024-02-28T09:52:54;9.60;99.90
758;DHT22;363;48.764;9.172;2024-02-28T09:55:21;9.70;99.90
758;DHT22;363;48.764;9.172;2024-02-28T09:57:50;9.80;99.90
758;DHT22;363;48.764;9.172;2024-02-28T10:00:19;9.50;99.90
758;DHT22;363;48.764;9.172;2024-02-28T10:02:47;9.40;99.90
758;DHT22;363;48.764;9.172;2024-02-28T10:05:14;10.00;99.90
758;DHT22;363;48.764;9.172;2024-02-28T10:07:42;9.30;99.90
758;DHT22;363;48.764;9.172;2024-02-28T10:10:08;9.80;99.90
758;DHT22;363;48.764;9.172;2024-02-28T10:12:34;9.30;99.90
758;DHT22;363;48.764;9.172;2024-02-28T10:15:03;9.60;99.90
758;DHT22;363;48.764;9.172;2024-02-28T10:17:28;9.30;99.90
758;DHT22;363;48.764;9.172;2024-02-28T10:19:54;9.70;99.90
758;DHT22;363;48.764;9.172;2024-02-28T10:22:19;9.30;99.90
758;DHT22;363;48.764;9.172;2024-02-28T10:24:45;9.30;99.90
758;DHT22;363;48.764;9.172;2024-02-28T10:27:16;9.40;99.90
758;DHT22;363;48.764;9.172;2024-02-28T10:29:42;9.90;99.90
758;DHT22;363;48.764;9.172;2024-02-28T10:32:09;9.20;99.90
758;DHT22;363;48.764;9.172;2024-02-28T10:34:36;9.20;99.90
758;DHT22;363;48.764;9.172;2024-02-28T10:37:04;9.20;99.90
758;DHT22;363;48.764;9.172;2024-02-28T10:39:31;9.40;99.90
758;DHT22;363;48.764;9.172;2024-02-28T10:42:00;9.10;99.90
758;DHT22;363;48.764;9.172;2024-02-28T10:44:27;9.70;99.90
758;DHT22;363;48.764;9.172;2024-02-28T10:46:53;9.70;99.90
758;DHT22;363;48.764;9.172;2024-02-28T10:49:20;9.70;99.90
758;DHT22;363;48.764;9.172;2024-02-28T10:51:48;9.80;99.90
758;DHT22;363;48.764;9.172;2024-02-28T10:54:15;10.10;99.90
758;DHT22;363;48.764;9.172;2024-02-28T10:56:41;9.80;99.90
758;DHT22;363;48.764;9.172;2024-02-28T10:59:09;9.70;99.90
758;DHT22;363;48.764;9.172;2024-02-28T11:01:39;9.80;99.90
758;DHT22;363;48.764;9.172;2024-02-28T11:04:07;9.80;99.90
758;DHT22;363;48.764;9.172;2024-02-28T11:06:33;9.90;99.90
758;DHT22;363;48.764;9.172;2024-02-28T11:09:03;9.70;99.90
758;DHT22;363;48.764;9.172;2024-02-28T11:11:32;9.80;99.90
758;DHT22;363;48.764;9.172;2024-02-28T11:13:59;10.20;99.90
758;DHT22;363;48.764;9.172;2024-02-28T11:16:33;9.90;99.90
758;DHT22;363;48.764;9.172;2024-02-28T11:19:01;9.60;99.90
758;DHT22;363;48.764;9.172;2024-02-28T11:21:29;10.10;99.90
758;DHT22;363;48.764;9.172;2024-02-28T11:23:59;9.40;99.90
758;DHT22;363;48.764;9.172;2024-02-28T11:26:25;9.90;99.90
758;DHT22;363;48.764;9.172;2024-02-28T11:28:55;10.20;99.90
758;DHT22;363;48.764;9.172;2024-02-28T11:31:21;9.60;99.90
758;DHT22;363;48.764;9.172;2024-02-28T11:33:47;9.70;99.90
758;DHT22;363;48.764;9.172;2024-02-28T11:36:13;9.50;99.90
758;DHT22;363;48.764;9.172;2024-02-28T11:38:40;10.20;99.90
758;DHT22;363;48.764;9.172;2024-02-28T11:41:06;9.70;99.90
758;DHT22;363;48.764;9.172;2024-02-28T11:43:33;9.60;99.90
758;DHT22;363;48.764;9.172;2024-02-28T11:46:00;10.50;99.90
758;DHT22;363;48.764;9.172;2024-02-28T11:48:26;10.30;99.90
758;DHT22;363;48.764;9.172;2024-02-28T11:50:53;10.40;99.90
758;DHT22;363;48.764;9.172;2024-02-28T11:53:19;10.40;99.90
758;DHT22;363;48.764;9.172;2024-02-28T11:55:45;10.40;99.90
758;DHT22;363;48.764;9.172;2024-02-28T11:58:13;10.50;99.90
758;DHT22;363;48.764;9.172;2024-02-28T12:00:51;10.20;99.90
758;DHT22;363;48.764;9.172;2024-02-28T12:03:24;10.20;99.90
758;DHT22;363;48.764;9.172;2024-02-28T12:05:51;9.90;99.90
758;DHT22;363;48.764;9.172;2024-02-28T12:08:18;10.40;99.90
758;DHT22;363;48.764;9.172;2024-02-28T12:10:45;10.00;99.90
758;DHT22;363;48.764;9.172;2024-02-28T12:13:10;10.10;99.90
758;DHT22;363;48.764;9.172;2024-02-28T12:15:39;10.00;99.90
758;DHT22;363;48.764;9.172;2024-02-28T12:18:11;10.80;99.90
758;DHT22;363;48.764;9.172;2024-02-28T12:20:37;9.80;99.90
758;DHT22;363;48.764;9.172;2024-02-28T12:23:04;9.90;99.90
758;DHT22;363;48.764;9.172;2024-02-28T12:25:29;9.90;99.90
758;DHT22;363;48.764;9.172;2024-02-28T12:27:55;9.90;99.90
758;DHT22;363;48.764;9.172;2024-02-28T12:30:20;10.30;99.90
758;DHT22;363;48.764;9.172;2024-02-28T12:32:46;10.30;99.90
758;DHT22;363;48.764;9.172;2024-02-28T12:35:11;10.40;99.90
758;DHT22;363;48.764;9.172;2024-02-28T12:37:37;10.00;99.90
758;DHT22;363;48.764;9.172;2024-02-28T12:40:05;10.10;99.90
758;DHT22;363;48.764;9.172;2024-02-28T12:42:31;9.90;99.90
758;DHT22;363;48.764;9.172;2024-02-28T12:44:57;9.90;99.90
758;DHT22;363;48.764;9.172;2024-02-28T12:47:22;9.50;99.90
758;DHT22;363;48.764;9.172;2024-02-28T12:49:48;10.30;99.90
758;DHT22;363;48.764;9.172;2024-02-28T12:52:13;9.80;99.90
758;DHT22;363;48.764;9.172;2024-02-28T12:54:39;10.00;99.90
758;DHT22;363;48.764;9.172;2024-02-28T12:57:05;10.20;99.90
758;DHT22;363;48.764;9.172;2024-02-28T12:59:31;10.30;99.90
758;DHT22;363;48.764;9.172;2024-02-28T13:01:58;10.20;99.90
758;DHT22;363;48.764;9.172;2024-02-28T13:04:24;10.40;99.90
758;DHT22;363;48.764;9.172;2024-02-28T13:06:51;9.80;99.90
758;DHT22;363;48.764;9.172;2024-02-28T13:09:18;10.30;99.90
758;DHT22;363;48.764;9.172;2024-02-28T13:11:43;10.30;99.90
758;DHT22;363;48.764;9.172;2024-02-28T13:14:09;10.10;99.90
758;DHT22;363;48.764;9.172;2024-02-28T13:16:35;10.40;99.90
758;DHT22;363;48.764;9.172;2024-02-28T13:19:01;10.00;99.90
758;DHT22;363;48.764;9.172;2024-02-28T13:21:27;10.20;99.90
758;DHT22;363;48.764;9.172;2024-02-28T13:23:52;9.90;99.90
758;DHT22;363;48.764;9.172;2024-02-28T13:26:18;10.40;99.90
758;DHT22;363;48.764;9.172;2024-02-28T13:28:44;9.90;99.90
758;DHT22;363;48.764;9.172;2024-02-28T13:31:09;10.10;99.90
758;DHT22;363;48.764;9.172;2024-02-28T13:33:35;9.70;99.90
758;DHT22;363;48.764;9.172;2024-02-28T13:36:03;9.70;99.90
758;DHT22;363;48.764;9.172;2024-02-28T13:38:30;9.70;99.90
758;DHT22;363;48.764;9.172;2024-02-28T13:40:55;9.80;99.90
758;DHT22;363;48.764;9.172;2024-02-28T13:43:21;9.80;99.90
758;DHT22;363;48.764;9.172;2024-02-28T13:45:48;9.40;99.90
758;DHT22;363;48.764;9.172;2024-02-28T13:48:18;9.60;99.90
758;DHT22;363;48.764;9.172;2024-02-28T13:50:46;9.80;99.90
758;DHT22;363;48.764;9.172;2024-02-28T13:53:12;9.80;99.90
758;DHT22;363;48.764;9.172;2024-02-28T13:55:38;9.70;99.90
758;DHT22;363;48.764;9.172;2024-02-28T13:58:04;10.00;99.90
758;DHT22;363;48.764;9.172;2024-02-28T14:00:30;9.60;99.90
758;DHT22;363;48.764;9.172;2024-02-28T14:02:56;9.70;99.90
758;DHT22;363;48.764;9.172;2024-02-28T14:05:22;9.40;99.90
758;DHT22;363;48.764;9.172;2024-02-28T14:07:47;9.80;99.90
758;DHT22;363;48.764;9.172;2024-02-28T14:10:13;9.80;99.90
758;DHT22;363;48.764;9.172;2024-02-28T14:12:39;9.70;99.90
758;DHT22;363;48.764;9.172;2024-02-28T14:15:05;9.90;99.90
758;DHT22;363;48.764;9.172;2024-02-28T14:17:32;9.50;99.90
758;DHT22;363;48.764;9.172;2024-02-28T14:19:57;9.60;99.90
758;DHT22;363;48.764;9.172;2024-02-28T14:22:23;10.00;99.90
758;DHT22;363;48.764;9.172;2024-02-28T14:24:49;9.80;99.90
758;DHT22;363;48.764;9.172;2024-02-28T14:27:15;9.90;99.90
758;DHT22;363;48.764;9.172;2024-02-28T14:29:40;10.20;99.90
758;DHT22;363;48.764;9.172;2024-02-28T14:32:06;10.10;99.90
758;DHT22;363;48.764;9.172;2024-02-28T14:34:32;9.60;99.90
758;DHT22;363;48.764;9.172;2024-02-28T14:36:58;9.50;99.90
758;DHT22;363;48.764;9.172;2024-02-28T14:39:23;9.70;99.90
758;DHT22;363;48.764;9.172;2024-02-28T14:41:49;10.00;99.90
758;DHT22;363;48.764;9.172;2024-02-28T14:44:15;9.50;99.90
758;DHT22;363;48.764;9.172;2024-02-28T14:46:42;9.60;99.90
758;DHT22;363;48.764;9.172;2024-02-28T14:49:08;9.30;99.90
758;DHT22;363;48.764;9.172;2024-02-28T14:51:34;9.70;99.90
758;DHT22;363;48.764;9.172;2024-02-28T14:54:00;9.60;99.90
758;DHT22;363;48.764;9.172;2024-02-28T14:56:26;9.50;99.90
758;DHT22;363;48.764;9.172;2024-02-28T14:58:56;9.20;99.90
758;DHT22;363;48.764;9.172;2024-02-28T15:01:22;9.50;99.90
758;DHT22;363;48.764;9.172;2024-02-28T15:03:50;9.20;99.90
758;DHT22;363;48.764;9.172;2024-02-28T15:06:15;9.80;99.90
758;DHT22;363;48.764;9.172;2024-02-28T15:08:41;9.50;99.90
758;DHT22;363;48.764;9.172;2024-02-28T15:11:06;9.40;99.90
758;DHT22;363;48.764;9.172;2024-02-28T15:13:32;9.70;99.90
758;DHT22;363;48.764;9.172;2024-02-28T15:15:57;9.90;99.90
758;DHT22;363;48.764;9.172;2024-02-28T15:18:23;9.40;99.90
758;DHT22;363;48.764;9.172;2024-02-28T15:20:49;9.10;99.90
758;DHT22;363;48.764;9.172;2024-02-28T15:23:15;8.90;99.90
758;DHT22;363;48.764;9.172;2024-02-28T15:25:41;9.50;99.90
758;DHT22;363;48.764;9.172;2024-02-28T15:28:07;8.90;99.90
758;DHT22;363;48.764;9.172;2024-02-28T15:30:36;8.90;99.90
758;DHT22;363;48.764;9.172;2024-02-28T15:33:01;9.10;99.90
758;DHT22;363;48.764;9.172;2024-02-28T15:35:27;9.30;99.90
758;DHT22;363;48.764;9.172;2024-02-28T15:37:52;9.50;99.90
758;DHT22;363;48.764;9.172;2024-02-28T15:40:18;9.40;99.90
758;DHT22;363;48.764;9.172;2024-02-28T15:42:46;8.90;99.90
758;DHT22;363;48.764;9.172;2024-02-28T15:45:12;8.90;99.90
758;DHT22;363;48.764;9.172;2024-02-28T15:47:41;9.40;99.90
758;DHT22;363;48.764;9.172;2024-02-28T15:50:07;9.10;99.90
758;DHT22;363;48.764;9.172;2024-02-28T15:52:33;8.90;99.90
758;DHT22;363;48.764;9.172;2024-02-28T15:54:58;9.00;99.90
758;DHT22;363;48.764;9.172;2024-02-28T15:57:24;9.00;99.90
758;DHT22;363;48.764;9.172;2024-02-28T15:59:49;9.10;99.90
758;DHT22;363;48.764;9.172;2024-02-28T16:02:15;9.10;99.90
758;DHT22;363;48.764;9.172;2024-02-28T16:04:41;9.10;99.90
758;DHT22;363;48.764;9.172;2024-02-28T16:07:06;9.30;99.90
758;DHT22;363;48.764;9.172;2024-02-28T16:09:33;9.40;99.90
758;DHT22;363;48.764;9.172;2024-02-28T16:11:58;9.20;99.90
758;DHT22;363;48.764;9.172;2024-02-28T16:14:24;9.40;99.90
758;DHT22;363;48.764;9.172;2024-02-28T16:16:49;8.80;99.90
758;DHT22;363;48.764;9.172;2024-02-28T16:19:15;9.00;99.90
758;DHT22;363;48.764;9.172;2024-02-28T16:21:41;9.60;99.90
758;DHT22;363;48.764;9.172;2024-02-28T16:24:07;9.10;99.90
758;DHT22;363;48.764;9.172;2024-02-28T16:26:32;8.80;99.90
758;DHT22;363;48.764;9.172;2024-02-28T16:28:58;8.80;99.90
758;DHT22;363;48.764;9.172;2024-02-28T16:31:24;9.00;99.90
758;DHT22;363;48.764;9.172;2024-02-28T16:33:49;9.20;99.90
758;DHT22;363;48.764;9.172;2024-02-28T16:36:15;9.10;99.90
758;DHT22;363;48.764;9.172;2024-02-28T16:38:41;9.00;99.90
758;DHT22;363;48.764;9.172;2024-02-28T16:41:07;8.80;99.90
758;DHT22;363;48.764;9.172;2024-02-28T16:43:32;10.40;99.90
758;DHT22;363;48.764;9.172;2024-02-28T16:45:58;8.80;99.90